createdAt,value
2022-12-25T00:00:45.144Z,101683.16
2022-12-25T00:03:35.292Z,101681.48
2022-12-25T00:06:26.003Z,101677.93
2022-12-25T00:09:16.712Z,101681.94
2022-12-25T00:12:07.542Z,101680.15
2022-12-25T00:14:57.518Z,101678.86
2022-12-25T00:17:47.873Z,101679.53
2022-12-25T00:20:37.914Z,101684.65
2022-12-25T00:23:28.170Z,101681.95
2022-12-25T00:26:20.314Z,101679.98
2022-12-25T00:29:13.314Z,101680.98
2022-12-25T00:32:03.755Z,101679.14
2022-12-25T00:34:53.743Z,101682.54
2022-12-25T00:37:43.927Z,101680.51
2022-12-25T00:40:34.054Z,101687.76
2022-12-25T00:43:24.013Z,101691.28
2022-12-25T00:46:15.557Z,101687.40
2022-12-25T00:49:06.226Z,101690.52
2022-12-25T00:51:56.416Z,101691.11
2022-12-25T00:54:46.703Z,101692.14
2022-12-25T00:57:37.200Z,101693.37
2022-12-25T01:00:27.482Z,101694.19
2022-12-25T01:03:18.464Z,101695.58
2022-12-25T01:06:11.089Z,101695.52
2022-12-25T01:09:21.199Z,101698.81
2022-12-25T01:12:11.597Z,101705.75
2022-12-25T01:15:02.609Z,101713.56
2022-12-25T01:17:53.172Z,101718.01
2022-12-25T01:20:43.392Z,101718.46
2022-12-25T01:23:33.583Z,101725.09
2022-12-25T01:26:25.590Z,101726.64
2022-12-25T01:29:16.343Z,101729.66
2022-12-25T01:32:08.079Z,101735.40
2022-12-25T01:34:58.560Z,101735.98
2022-12-25T01:37:49.453Z,101742.91
2022-12-25T01:40:40.750Z,101745.95
2022-12-25T01:43:34.353Z,101748.98
2022-12-25T01:46:25.516Z,101750.82
2022-12-25T01:49:22.603Z,101754.58
2022-12-25T01:52:21.654Z,101758.46
2022-12-25T01:55:15.755Z,101763.40
2022-12-25T01:58:07.599Z,101766.63
2022-12-25T02:00:58.828Z,101768.10
2022-12-25T02:03:49.817Z,101768.44
2022-12-25T02:06:41.562Z,101762.94
2022-12-25T02:09:33.507Z,101762.98
2022-12-25T02:12:27.544Z,101764.63
2022-12-25T02:15:22.590Z,101764.84
2022-12-25T02:18:21.013Z,101761.74
2022-12-25T02:21:26.205Z,101758.11
2022-12-25T02:24:52.529Z,101753.98
2022-12-25T02:28:08.950Z,101753.74
2022-12-25T02:31:09.538Z,101751.86
2022-12-25T02:34:12.473Z,101753.70
2022-12-25T02:37:08.888Z,101752.16
2022-12-25T02:40:08.695Z,101751.60
2022-12-25T02:43:21.078Z,101746.95
2022-12-25T02:46:32.776Z,101751.23
2022-12-25T02:49:45.957Z,101752.30
2022-12-25T02:52:54.666Z,101752.50
2022-12-25T02:56:04.227Z,101751.34
2022-12-25T02:59:13.244Z,101748.19
2022-12-25T03:02:26.153Z,101748.84
2022-12-25T03:05:40.417Z,101745.69
2022-12-25T03:08:36.599Z,101741.15
2022-12-25T03:11:34.621Z,101745.86
2022-12-25T03:14:43.768Z,101747.48
2022-12-25T03:17:36.706Z,101747.45
2022-12-25T03:20:45.643Z,101747.73
2022-12-25T03:23:56.922Z,101748.30
2022-12-25T03:26:57.562Z,101748.63
2022-12-25T03:30:06.498Z,101747.22
2022-12-25T03:33:36.782Z,101745.46
2022-12-25T03:36:27.165Z,101741.08
2022-12-25T03:39:54.892Z,101740.33
2022-12-25T03:43:11.907Z,101737.38
2022-12-25T03:46:28.930Z,101736.17
2022-12-25T03:49:44.120Z,101744.75
2022-12-25T03:52:53.724Z,101743.33
2022-12-25T03:56:02.647Z,101740.53
2022-12-25T03:59:23.115Z,101742.98
2022-12-25T04:02:31.992Z,101744.23
2022-12-25T04:05:40.629Z,101753.61
2022-12-25T04:08:48.466Z,101760.43
2022-12-25T04:12:02.195Z,101759.92
2022-12-25T04:15:10.422Z,101758.14
2022-12-25T04:18:18.385Z,101755.77
2022-12-25T04:21:26.061Z,101761.05
2022-12-25T04:24:34.681Z,101761.64
2022-12-25T04:27:57.344Z,101766.98
2022-12-25T04:31:04.675Z,101773.06
2022-12-25T04:34:12.146Z,101777.61
2022-12-25T04:37:02.516Z,101786.20
2022-12-25T04:39:52.604Z,101784.52
2022-12-25T04:42:42.312Z,101788.98
2022-12-25T04:45:32.169Z,101786.32
2022-12-25T04:48:22.177Z,101782.13
2022-12-25T04:51:21.731Z,101788.11
2022-12-25T04:54:12.272Z,101792.98
2022-12-25T04:57:02.348Z,101793.61
2022-12-25T04:59:52.553Z,101794.77
2022-12-25T05:02:42.851Z,101791.38
2022-12-25T05:05:33.222Z,101794.50
2022-12-25T05:08:23.919Z,101793.98
2022-12-25T05:11:15.939Z,101802.92
2022-12-25T05:14:06.046Z,101795.20
2022-12-25T05:16:56.245Z,101796.67
2022-12-25T05:19:46.865Z,101795.43
2022-12-25T05:22:37.221Z,101791.36
2022-12-25T05:25:27.423Z,101789.30
2022-12-25T05:28:17.755Z,101787.12
2022-12-25T05:31:07.854Z,101788.20
2022-12-25T05:33:57.966Z,101792.56
2022-12-25T05:36:48.374Z,101798.73
2022-12-25T05:39:39.076Z,101804.46
2022-12-25T05:42:28.978Z,101812.14
2022-12-25T05:45:19.844Z,101812.90
2022-12-25T05:48:10.915Z,101812.77
2022-12-25T05:51:04.472Z,101813.09
2022-12-25T05:53:54.710Z,101814.02
2022-12-25T05:56:44.615Z,101818.42
2022-12-25T05:59:34.700Z,101822.15
2022-12-25T06:02:24.833Z,101824.16
2022-12-25T06:05:15.722Z,101824.48
2022-12-25T06:08:06.255Z,101818.56
2022-12-25T06:10:58.837Z,101820.05
2022-12-25T06:13:53.422Z,101819.92
2022-12-25T06:16:43.546Z,101821.71
2022-12-25T06:19:33.711Z,101821.05
2022-12-25T06:22:23.590Z,101825.98
2022-12-25T06:25:14.472Z,101822.02
2022-12-25T06:28:05.179Z,101823.39
2022-12-25T06:30:55.105Z,101828.13
2022-12-25T06:33:45.371Z,101834.34
2022-12-25T06:36:35.249Z,101838.89
2022-12-25T06:39:25.712Z,101839.22
2022-12-25T06:42:16.950Z,101831.92
2022-12-25T06:45:08.126Z,101826.35
2022-12-25T06:47:57.964Z,101836.83
2022-12-25T06:50:48.153Z,101840.15
2022-12-25T06:53:40.573Z,101839.45
2022-12-25T06:56:31.541Z,101842.81
2022-12-25T06:59:22.344Z,101849.30
2022-12-25T07:02:20.236Z,101847.48
2022-12-25T07:05:11.823Z,101849.01
2022-12-25T07:08:02.695Z,101851.69
2022-12-25T07:10:52.790Z,101856.98
2022-12-25T07:13:43.054Z,101863.31
2022-12-25T07:16:33.665Z,101865.81
2022-12-25T07:19:24.380Z,101867.73
2022-12-25T07:22:15.031Z,101866.39
2022-12-25T07:25:06.185Z,101862.85
2022-12-25T07:27:57.000Z,101869.29
2022-12-25T07:30:47.081Z,101871.77
2022-12-25T07:33:37.615Z,101868.34
2022-12-25T07:36:29.391Z,101873.95
2022-12-25T07:39:20.452Z,101880.02
2022-12-25T07:42:11.649Z,101884.40
2022-12-25T07:45:02.271Z,101888.06
2022-12-25T07:47:55.202Z,101890.93
2022-12-25T07:50:46.345Z,101891.21
2022-12-25T07:53:38.317Z,101896.66
2022-12-25T07:56:30.908Z,101900.04
2022-12-25T07:59:22.551Z,101907.88
2022-12-25T08:02:15.083Z,101913.19
2022-12-25T08:05:07.467Z,101916.22
2022-12-25T08:07:59.792Z,101914.38
2022-12-25T08:10:53.128Z,101925.75
2022-12-25T08:13:45.144Z,101933.58
2022-12-25T08:16:40.024Z,101932.06
2022-12-25T08:19:32.436Z,101935.41
2022-12-25T08:22:25.181Z,101936.03
2022-12-25T08:25:19.551Z,101942.11
2022-12-25T08:28:12.181Z,101948.40
2022-12-25T08:31:07.835Z,101959.80
2022-12-25T08:34:01.060Z,101969.21
2022-12-25T08:36:54.323Z,101972.85
2022-12-25T08:39:47.617Z,101974.60
2022-12-25T08:42:38.644Z,101977.80
2022-12-25T08:45:35.170Z,101979.22
2022-12-25T08:48:26.905Z,101980.36
2022-12-25T08:51:21.986Z,101982.69
2022-12-25T08:54:13.392Z,101989.88
2022-12-25T08:57:04.785Z,101994.50
2022-12-25T08:59:57.910Z,102000.13
2022-12-25T09:02:50.859Z,102004.82
2022-12-25T09:05:42.110Z,102010.45
2022-12-25T09:08:35.000Z,102014.05
2022-12-25T09:11:27.656Z,102018.43
2022-12-25T09:14:19.097Z,102021.60
2022-12-25T09:17:11.587Z,102023.77
2022-12-25T09:20:04.703Z,102026.90
2022-12-25T09:22:57.498Z,102033.83
2022-12-25T09:25:49.516Z,102038.95
2022-12-25T09:28:46.548Z,102044.52
2022-12-25T09:31:42.492Z,102045.38
2022-12-25T09:34:34.425Z,102044.12
2022-12-25T09:37:26.854Z,102048.19
2022-12-25T09:40:23.968Z,102049.27
2022-12-25T09:43:21.898Z,102051.22
2022-12-25T09:46:19.814Z,102052.63
2022-12-25T09:49:21.225Z,102053.13
2022-12-25T09:52:19.195Z,102051.90
2022-12-25T09:55:20.732Z,102053.41
2022-12-25T09:58:15.795Z,102054.09
2022-12-25T10:01:20.771Z,102048.65
2022-12-25T10:04:40.793Z,102045.52
2022-12-25T10:07:44.029Z,102052.14
2022-12-25T10:10:47.725Z,102052.23
2022-12-25T10:13:58.614Z,102049.81
2022-12-25T10:17:00.808Z,102048.40
2022-12-25T10:20:03.012Z,102050.17
2022-12-25T10:23:00.923Z,102047.04
2022-12-25T10:25:52.895Z,102043.41
2022-12-25T10:28:45.605Z,102042.34
2022-12-25T10:31:38.773Z,102042.95
2022-12-25T10:34:29.054Z,102040.77
2022-12-25T10:37:19.434Z,102044.05
2022-12-25T10:40:31.129Z,102042.22
2022-12-25T10:43:25.422Z,102038.35
2022-12-25T10:46:17.012Z,102036.08
2022-12-25T10:49:12.362Z,102033.06
2022-12-25T10:52:02.921Z,102028.41
2022-12-25T10:54:53.947Z,102032.40
2022-12-25T10:57:49.084Z,102031.25
2022-12-25T11:00:38.681Z,102029.27
2022-12-25T11:03:31.095Z,102034.20
2022-12-25T11:06:30.108Z,102032.80
2022-12-25T11:09:19.932Z,102027.90
2022-12-25T11:12:21.357Z,102020.20
2022-12-25T11:15:35.710Z,102015.67
2022-12-25T11:18:28.570Z,102013.97
2022-12-25T11:21:23.432Z,102010.14
2022-12-25T11:24:22.767Z,102012.94
2022-12-25T11:27:28.274Z,102011.63
2022-12-25T11:30:19.305Z,102004.92
2022-12-25T11:33:15.745Z,102004.09
2022-12-25T11:36:17.295Z,102003.69
2022-12-25T11:39:20.714Z,102006.02
2022-12-25T11:42:18.483Z,102008.65
2022-12-25T11:45:15.520Z,102006.57
2022-12-25T11:48:15.415Z,102003.98
2022-12-25T11:51:09.005Z,101999.38
2022-12-25T11:54:05.785Z,101997.74
2022-12-25T11:56:58.953Z,101998.30
2022-12-25T11:59:56.433Z,101997.73
2022-12-25T12:02:53.598Z,101999.79
2022-12-25T12:05:53.880Z,102002.15
2022-12-25T12:08:45.751Z,101997.04
2022-12-25T12:11:43.273Z,101994.66
2022-12-25T12:14:49.831Z,101992.79
2022-12-25T12:17:41.535Z,101987.96
2022-12-25T12:20:36.184Z,101984.24
2022-12-25T12:23:27.752Z,101984.09
2022-12-25T12:26:23.676Z,101982.16
2022-12-25T12:29:27.049Z,101982.66
2022-12-25T12:32:36.833Z,101981.42
2022-12-25T12:35:32.260Z,101982.33
2022-12-25T12:38:25.105Z,101979.52
2022-12-25T12:41:18.571Z,101979.03
2022-12-25T12:44:12.857Z,101976.36
2022-12-25T12:47:04.651Z,101974.34
2022-12-25T12:50:02.411Z,101974.83
2022-12-25T12:52:53.416Z,101972.64
2022-12-25T12:55:44.621Z,101972.75
2022-12-25T12:58:38.213Z,101976.38
2022-12-25T13:01:44.706Z,101975.31
2022-12-25T13:04:57.927Z,101979.03
2022-12-25T13:08:00.785Z,101980.38
2022-12-25T13:10:55.029Z,101984.55
2022-12-25T13:13:51.397Z,101985.66
2022-12-25T13:16:44.411Z,101988.04
2022-12-25T13:19:36.446Z,101989.45
2022-12-25T13:22:35.442Z,101984.68
2022-12-25T13:25:27.677Z,101988.20
2022-12-25T13:28:19.244Z,101992.04
2022-12-25T13:31:19.194Z,101993.99
2022-12-25T13:34:31.078Z,101998.52
2022-12-25T13:37:24.515Z,101996.73
2022-12-25T13:40:25.557Z,101999.33
2022-12-25T13:43:17.171Z,102002.80
2022-12-25T13:46:08.558Z,102004.93
2022-12-25T13:49:04.054Z,102006.23
2022-12-25T13:52:10.805Z,102010.40
2022-12-25T13:55:05.330Z,102015.49
2022-12-25T13:57:59.698Z,102017.20
2022-12-25T14:00:53.810Z,102015.00
2022-12-25T14:03:48.323Z,102015.00
2022-12-25T14:06:39.508Z,102020.30
2022-12-25T14:09:31.142Z,102024.63
2022-12-25T14:12:22.567Z,102024.27
2022-12-25T14:15:21.292Z,102023.45
2022-12-25T14:18:27.168Z,102020.02
2022-12-25T14:21:27.273Z,102025.51
2022-12-25T14:24:20.761Z,102030.40
2022-12-25T14:27:22.425Z,102031.25
2022-12-25T14:30:16.605Z,102030.32
2022-12-25T14:33:07.723Z,102030.69
2022-12-25T14:35:57.957Z,102031.43
2022-12-25T14:38:59.364Z,102036.02
2022-12-25T14:41:55.074Z,102035.88
2022-12-25T14:44:45.127Z,102035.13
2022-12-25T14:47:41.392Z,102033.36
2022-12-25T14:50:35.326Z,102032.83
2022-12-25T14:53:34.984Z,102034.29
2022-12-25T14:56:27.872Z,102038.55
2022-12-25T14:59:21.659Z,102039.02
2022-12-25T15:02:20.562Z,102038.98
2022-12-25T15:05:28.830Z,102037.05
2022-12-25T15:08:28.962Z,102038.85
2022-12-25T15:11:18.639Z,102037.04
2022-12-25T15:14:08.386Z,102036.41
2022-12-25T15:17:00.351Z,102044.44
2022-12-25T15:19:50.063Z,102046.77
2022-12-25T15:23:02.809Z,102045.75
2022-12-25T15:25:51.184Z,102048.37
2022-12-25T15:28:41.724Z,102046.96
2022-12-25T15:31:33.713Z,102046.43
2022-12-25T15:34:23.878Z,102049.55
2022-12-25T15:37:13.766Z,102049.88
2022-12-25T15:40:04.930Z,102046.67
2022-12-25T15:42:56.891Z,102045.83
2022-12-25T15:45:46.817Z,102045.75
2022-12-25T15:48:36.698Z,102044.20
2022-12-25T15:51:26.667Z,102044.75
2022-12-25T15:54:16.851Z,102046.53
2022-12-25T15:57:08.727Z,102049.48
2022-12-25T15:59:58.426Z,102050.70
2022-12-25T16:02:48.553Z,102050.27
2022-12-25T16:05:38.754Z,102049.90
2022-12-25T16:08:28.644Z,102052.14
2022-12-25T16:11:18.295Z,102054.10
2022-12-25T16:14:08.359Z,102057.83
2022-12-25T16:16:58.687Z,102061.20
2022-12-25T16:19:48.760Z,102067.30
2022-12-25T16:22:42.201Z,102074.64
2022-12-25T16:25:32.020Z,102074.10
2022-12-25T16:28:21.866Z,102075.24
2022-12-25T16:31:11.878Z,102078.13
2022-12-25T16:34:02.495Z,102080.02
2022-12-25T16:36:52.548Z,102081.66
2022-12-25T16:39:42.425Z,102083.95
2022-12-25T16:42:32.391Z,102085.83
2022-12-25T16:45:22.039Z,102084.21
2022-12-25T16:48:13.386Z,102082.73
2022-12-25T16:51:08.822Z,102088.92
2022-12-25T16:53:59.048Z,102088.23
2022-12-25T16:56:48.638Z,102088.14
2022-12-25T16:59:38.685Z,102086.23
2022-12-25T17:02:28.954Z,102087.11
2022-12-25T17:05:19.471Z,102085.97
2022-12-25T17:08:09.851Z,102090.41
2022-12-25T17:10:59.996Z,102099.32
2022-12-25T17:13:51.303Z,102103.74
2022-12-25T17:16:42.308Z,102101.25
2022-12-25T17:19:32.219Z,102111.05
2022-12-25T17:22:22.240Z,102111.39
2022-12-25T17:25:13.230Z,102108.08
2022-12-25T17:28:03.343Z,102106.14
2022-12-25T17:30:53.567Z,102107.00
2022-12-25T17:33:45.031Z,102107.70
2022-12-25T17:36:36.110Z,102106.08
2022-12-25T17:39:26.467Z,102106.85
2022-12-25T17:42:16.704Z,102106.73
2022-12-25T17:45:09.243Z,102105.63
2022-12-25T17:48:00.237Z,102104.48
2022-12-25T17:50:51.082Z,102104.80
2022-12-25T17:53:42.924Z,102107.79
2022-12-25T17:56:33.366Z,102106.59
2022-12-25T17:59:28.622Z,102106.65
2022-12-25T18:02:18.939Z,102109.52
2022-12-25T18:05:11.525Z,102110.79
2022-12-25T18:08:05.467Z,102111.09
2022-12-25T18:10:58.126Z,102113.99
2022-12-25T18:13:52.176Z,102114.91
2022-12-25T18:16:45.028Z,102120.70
2022-12-25T18:19:35.669Z,102119.14
2022-12-25T18:22:25.945Z,102122.20
2022-12-25T18:25:16.317Z,102122.80
2022-12-25T18:28:07.415Z,102117.02
2022-12-25T18:30:58.313Z,102115.29
2022-12-25T18:33:49.748Z,102113.61
2022-12-25T18:36:40.264Z,102114.02
2022-12-25T18:39:30.517Z,102116.25
2022-12-25T18:42:37.795Z,102122.15
2022-12-25T18:45:28.234Z,102120.47
2022-12-25T18:48:18.189Z,102119.91
2022-12-25T18:51:10.558Z,102122.34
2022-12-25T18:54:01.744Z,102123.94
2022-12-25T18:56:53.537Z,102123.27
2022-12-25T18:59:44.177Z,102118.60
2022-12-25T19:02:34.297Z,102115.86
2022-12-25T19:05:24.398Z,102117.77
2022-12-25T19:08:14.370Z,102118.82
2022-12-25T19:11:09.411Z,102121.45
2022-12-25T19:13:59.224Z,102119.23
2022-12-25T19:16:49.240Z,102120.69
2022-12-25T19:19:39.993Z,102123.04
2022-12-25T19:22:29.887Z,102121.70
2022-12-25T19:25:20.015Z,102118.23
2022-12-25T19:28:09.752Z,102117.37
2022-12-25T19:31:02.223Z,102115.98
2022-12-25T19:33:51.926Z,102118.23
2022-12-25T19:36:42.428Z,102119.64
2022-12-25T19:39:32.587Z,102124.83
2022-12-25T19:42:22.851Z,102131.52
2022-12-25T19:45:14.469Z,102125.94
2022-12-25T19:48:05.188Z,102122.25
2022-12-25T19:50:56.437Z,102123.42
2022-12-25T19:53:47.773Z,102127.92
2022-12-25T19:56:38.547Z,102130.77
2022-12-25T19:59:29.157Z,102129.68
2022-12-25T20:02:20.318Z,102129.69
2022-12-25T20:05:11.654Z,102136.54
2022-12-25T20:08:02.736Z,102138.45
2022-12-25T20:10:53.409Z,102136.52
2022-12-25T20:13:43.644Z,102137.18
2022-12-25T20:16:35.193Z,102128.70
2022-12-25T20:19:25.879Z,102132.17
2022-12-25T20:22:16.045Z,102137.77
2022-12-25T20:25:09.225Z,102138.44
2022-12-25T20:27:59.578Z,102136.23
2022-12-25T20:30:49.788Z,102139.88
2022-12-25T20:33:39.681Z,102142.98
2022-12-25T20:36:36.348Z,102146.67
2022-12-25T20:39:27.430Z,102148.96
2022-12-25T20:42:17.743Z,102148.17
2022-12-25T20:45:09.647Z,102152.80
2022-12-25T20:48:00.343Z,102156.86
2022-12-25T20:50:50.392Z,102152.71
2022-12-25T20:53:40.887Z,102151.45
2022-12-25T20:56:30.915Z,102155.09
2022-12-25T20:59:20.629Z,102154.56
2022-12-25T21:02:34.905Z,102158.55
2022-12-25T21:05:22.576Z,102158.09
2022-12-25T21:08:12.404Z,102157.44
2022-12-25T21:11:04.164Z,102155.73
2022-12-25T21:13:55.000Z,102155.92
2022-12-25T21:16:45.568Z,102158.02
2022-12-25T21:19:37.896Z,102160.57
2022-12-25T21:22:28.162Z,102161.07
2022-12-25T21:25:18.686Z,102163.16
2022-12-25T21:28:08.916Z,102163.05
2022-12-25T21:31:04.491Z,102161.73
2022-12-25T21:33:55.402Z,102162.38
2022-12-25T21:36:45.079Z,102165.05
2022-12-25T21:39:35.698Z,102169.09
2022-12-25T21:42:26.252Z,102175.25
2022-12-25T21:45:17.813Z,102171.52
2022-12-25T21:48:09.005Z,102176.93
2022-12-25T21:51:23.042Z,102178.63
2022-12-25T21:54:13.700Z,102180.88
2022-12-25T21:57:04.339Z,102184.38
2022-12-25T21:59:54.576Z,102189.54
2022-12-25T22:02:45.394Z,102188.82
2022-12-25T22:05:55.654Z,102190.99
2022-12-25T22:08:45.507Z,102191.78
2022-12-25T22:11:53.424Z,102192.77
2022-12-25T22:14:55.844Z,102192.05
2022-12-25T22:18:04.518Z,102197.23
2022-12-25T22:20:54.516Z,102203.23
2022-12-25T22:23:44.403Z,102204.88
2022-12-25T22:26:34.644Z,102204.34
2022-12-25T22:29:24.460Z,102203.27
2022-12-25T22:32:15.858Z,102202.27
2022-12-25T22:35:07.224Z,102198.35
2022-12-25T22:37:57.757Z,102197.77
2022-12-25T22:40:47.594Z,102197.95
2022-12-25T22:44:15.329Z,102196.37
2022-12-25T22:46:48.116Z,102193.72
2022-12-25T22:49:38.837Z,102198.19
2022-12-25T22:52:28.780Z,102200.40
2022-12-25T22:55:20.684Z,102205.14
2022-12-25T22:58:10.941Z,102204.52
2022-12-25T23:01:00.920Z,102206.42
2022-12-25T23:03:55.994Z,102205.95
2022-12-25T23:06:47.339Z,102205.70
2022-12-25T23:09:37.057Z,102207.54
2022-12-25T23:12:45.135Z,102203.23
2022-12-25T23:15:35.611Z,102204.92
2022-12-25T23:18:48.800Z,102201.22
2022-12-25T23:21:57.065Z,102196.77
2022-12-25T23:25:04.965Z,102193.48
2022-12-25T23:27:54.951Z,102193.13
2022-12-25T23:30:45.417Z,102190.98
2022-12-25T23:33:35.889Z,102191.66
2022-12-25T23:36:26.665Z,102189.89
2022-12-25T23:39:18.030Z,102197.84
2022-12-25T23:42:08.871Z,102199.14
2022-12-25T23:44:59.774Z,102200.46
2022-12-25T23:47:50.744Z,102199.08
2022-12-25T23:50:40.977Z,102202.02
2022-12-25T23:53:30.863Z,102205.69
2022-12-25T23:56:22.046Z,102202.69
2022-12-25T23:59:14.020Z,102202.55
